createdAt,value
2022-12-29T00:01:40.248Z,64.25
2022-12-29T00:04:15.328Z,64.25
2022-12-29T00:06:45.821Z,64.25
2022-12-29T00:09:17.494Z,64.14
2022-12-29T00:11:47.183Z,64.16
2022-12-29T00:14:35.504Z,64.19
2022-12-29T00:17:04.960Z,64.31
2022-12-29T00:19:55.475Z,64.33
2022-12-29T00:22:44.032Z,64.41
2022-12-29T00:25:33.027Z,64.38
2022-12-29T00:28:20.588Z,64.16
2022-12-29T00:31:08.345Z,64.32
2022-12-29T00:33:55.835Z,64.33
2022-12-29T00:36:36.127Z,64.37
2022-12-29T00:39:36.077Z,64.32
2022-12-29T00:42:28.861Z,64.39
2022-12-29T00:44:58.163Z,64.44
2022-12-29T00:47:27.424Z,64.50
2022-12-29T00:49:56.788Z,64.60
2022-12-29T00:52:26.355Z,64.61
2022-12-29T00:54:55.901Z,64.67
2022-12-29T00:57:25.396Z,64.63
2022-12-29T00:59:55.193Z,64.65
2022-12-29T01:02:26.117Z,64.67
2022-12-29T01:04:58.362Z,64.77
2022-12-29T01:07:27.960Z,64.92
2022-12-29T01:10:12.543Z,64.91
2022-12-29T01:12:42.093Z,64.95
2022-12-29T01:15:17.583Z,64.86
2022-12-29T01:17:48.022Z,64.98
2022-12-29T01:20:17.838Z,64.94
2022-12-29T01:22:48.363Z,64.85
2022-12-29T01:25:17.559Z,64.88
2022-12-29T01:27:47.380Z,64.90
2022-12-29T01:30:16.744Z,64.84
2022-12-29T01:32:47.696Z,64.89
2022-12-29T01:35:17.082Z,64.81
2022-12-29T01:37:47.337Z,64.83
2022-12-29T01:40:18.536Z,64.86
2022-12-29T01:42:48.317Z,64.74
2022-12-29T01:45:19.563Z,64.67
2022-12-29T01:48:06.775Z,64.76
2022-12-29T01:50:47.948Z,64.77
2022-12-29T01:53:29.434Z,64.83
2022-12-29T01:56:09.306Z,64.95
2022-12-29T01:58:45.219Z,64.97
2022-12-29T02:01:16.540Z,65.01
2022-12-29T02:03:49.398Z,64.98
2022-12-29T02:06:32.547Z,65.01
2022-12-29T02:09:02.380Z,65.04
2022-12-29T02:11:38.546Z,65.17
2022-12-29T02:14:13.414Z,65.25
2022-12-29T02:16:57.370Z,65.33
2022-12-29T02:19:57.137Z,65.24
2022-12-29T02:22:36.006Z,65.17
2022-12-29T02:25:10.862Z,65.27
2022-12-29T02:28:28.464Z,65.17
2022-12-29T02:31:28.776Z,65.23
2022-12-29T02:34:43.627Z,65.18
2022-12-29T02:37:50.067Z,65.32
2022-12-29T02:40:50.176Z,65.40
2022-12-29T02:44:12.272Z,65.18
2022-12-29T02:47:23.766Z,65.25
2022-12-29T02:50:05.134Z,65.32
2022-12-29T02:52:51.829Z,65.25
2022-12-29T02:55:21.295Z,65.33
2022-12-29T02:58:27.938Z,65.19
2022-12-29T03:01:30.223Z,65.23
2022-12-29T03:04:56.796Z,65.32
2022-12-29T03:07:49.357Z,65.34
2022-12-29T03:11:00.340Z,65.18
2022-12-29T03:14:16.816Z,65.28
2022-12-29T03:17:03.340Z,65.17
2022-12-29T03:19:50.995Z,65.07
2022-12-29T03:22:28.712Z,64.96
2022-12-29T03:25:34.174Z,65.03
2022-12-29T03:28:18.801Z,65.05
2022-12-29T03:30:51.625Z,65.15
2022-12-29T03:33:26.659Z,65.20
2022-12-29T03:36:04.291Z,65.09
2022-12-29T03:38:57.267Z,65.06
2022-12-29T03:41:32.578Z,65.04
2022-12-29T03:44:02.963Z,64.80
2022-12-29T03:46:35.557Z,64.83
2022-12-29T03:49:07.791Z,64.71
2022-12-29T03:51:38.003Z,64.69
2022-12-29T03:54:10.745Z,64.79
2022-12-29T03:56:42.862Z,64.88
2022-12-29T03:59:15.860Z,64.95
2022-12-29T04:01:47.806Z,64.95
2022-12-29T04:04:19.015Z,64.93
2022-12-29T04:06:50.555Z,64.99
2022-12-29T04:09:20.216Z,65.02
2022-12-29T04:11:51.883Z,64.95
2022-12-29T04:14:24.807Z,65.00
2022-12-29T04:16:57.160Z,64.89
2022-12-29T04:19:27.250Z,64.92
2022-12-29T04:21:59.280Z,64.78
2022-12-29T04:24:33.599Z,64.68
2022-12-29T04:27:03.830Z,64.42
2022-12-29T04:29:58.904Z,64.34
2022-12-29T04:32:43.746Z,64.16
2022-12-29T04:35:20.338Z,64.08
2022-12-29T04:37:52.557Z,64.00
2022-12-29T04:40:22.480Z,63.84
2022-12-29T04:42:52.286Z,63.77
2022-12-29T04:45:24.030Z,63.65
2022-12-29T04:48:07.005Z,63.55
2022-12-29T04:50:51.391Z,63.20
2022-12-29T04:53:39.003Z,62.80
2022-12-29T04:56:10.393Z,62.67
2022-12-29T04:58:45.897Z,62.59
2022-12-29T05:01:16.737Z,62.39
2022-12-29T05:03:46.553Z,62.45
2022-12-29T05:06:19.974Z,62.36
2022-12-29T05:08:52.290Z,62.31
2022-12-29T05:11:23.269Z,62.36
2022-12-29T05:13:56.867Z,62.42
2022-12-29T05:16:35.888Z,62.64
2022-12-29T05:19:07.301Z,62.59
2022-12-29T05:21:39.814Z,62.69
2022-12-29T05:24:10.226Z,62.81
2022-12-29T05:26:47.459Z,62.88
2022-12-29T05:29:49.014Z,62.95
2022-12-29T05:32:18.785Z,63.16
2022-12-29T05:35:08.244Z,63.22
2022-12-29T05:37:45.617Z,63.17
2022-12-29T05:40:25.720Z,62.92
2022-12-29T05:43:04.115Z,62.95
2022-12-29T05:45:43.046Z,63.01
2022-12-29T05:48:41.726Z,63.00
2022-12-29T05:51:20.787Z,63.06
2022-12-29T05:53:51.773Z,62.97
2022-12-29T05:56:21.210Z,63.09
2022-12-29T05:58:57.217Z,63.06
2022-12-29T06:01:27.175Z,62.98
2022-12-29T06:03:57.020Z,62.98
2022-12-29T06:06:26.923Z,62.98
2022-12-29T06:08:58.878Z,62.97
2022-12-29T06:11:28.193Z,63.05
2022-12-29T06:14:00.934Z,63.13
2022-12-29T06:16:30.647Z,63.08
2022-12-29T06:19:02.029Z,63.11
2022-12-29T06:21:33.107Z,63.18
2022-12-29T06:24:20.512Z,62.86
2022-12-29T06:26:50.359Z,62.71
2022-12-29T06:29:21.683Z,62.71
2022-12-29T06:31:57.347Z,62.57
2022-12-29T06:34:26.708Z,62.59
2022-12-29T06:36:56.102Z,62.58
2022-12-29T06:39:25.257Z,62.47
2022-12-29T06:42:05.143Z,62.32
2022-12-29T06:44:53.482Z,62.25
2022-12-29T06:47:22.588Z,62.26
2022-12-29T06:49:51.845Z,62.09
2022-12-29T06:52:25.399Z,61.81
2022-12-29T06:55:00.308Z,61.74
2022-12-29T06:57:30.334Z,61.73
2022-12-29T07:00:00.028Z,61.53
2022-12-29T07:02:29.834Z,61.40
2022-12-29T07:04:59.438Z,61.16
2022-12-29T07:07:28.844Z,61.08
2022-12-29T07:09:58.436Z,61.15
2022-12-29T07:12:28.353Z,60.92
2022-12-29T07:14:57.970Z,60.82
2022-12-29T07:17:27.275Z,60.74
2022-12-29T07:19:56.573Z,60.53
2022-12-29T07:22:25.761Z,60.27
2022-12-29T07:24:54.887Z,60.26
2022-12-29T07:27:23.939Z,60.21
2022-12-29T07:29:53.552Z,60.02
2022-12-29T07:32:22.983Z,60.13
2022-12-29T07:34:53.338Z,59.92
2022-12-29T07:37:22.864Z,59.56
2022-12-29T07:39:52.143Z,59.36
2022-12-29T07:42:21.426Z,59.32
2022-12-29T07:44:54.233Z,59.27
2022-12-29T07:47:36.810Z,58.98
2022-12-29T07:50:07.625Z,58.87
2022-12-29T07:52:37.347Z,58.88
2022-12-29T07:55:07.985Z,58.68
2022-12-29T07:57:39.207Z,58.68
2022-12-29T08:00:10.897Z,58.73
2022-12-29T08:02:43.639Z,58.57
2022-12-29T08:05:13.324Z,58.22
2022-12-29T08:07:46.277Z,58.27
2022-12-29T08:10:16.973Z,58.32
2022-12-29T08:12:46.167Z,58.17
2022-12-29T08:15:15.794Z,58.10
2022-12-29T08:17:44.946Z,58.15
2022-12-29T08:20:14.229Z,57.91
2022-12-29T08:22:43.433Z,57.90
2022-12-29T08:25:12.691Z,57.97
2022-12-29T08:27:41.981Z,57.79
2022-12-29T08:30:15.962Z,57.80
2022-12-29T08:32:45.568Z,57.79
2022-12-29T08:35:14.944Z,57.62
2022-12-29T08:37:44.424Z,57.56
2022-12-29T08:40:14.690Z,57.46
2022-12-29T08:42:44.784Z,57.45
2022-12-29T08:45:16.657Z,57.38
2022-12-29T08:47:46.269Z,57.32
2022-12-29T08:50:15.947Z,57.44
2022-12-29T08:52:45.675Z,57.50
2022-12-29T08:55:15.311Z,57.60
2022-12-29T08:57:46.619Z,57.38
2022-12-29T09:00:24.792Z,57.18
2022-12-29T09:02:54.816Z,57.43
2022-12-29T09:05:24.175Z,57.12
2022-12-29T09:07:53.400Z,57.14
2022-12-29T09:10:22.476Z,56.97
2022-12-29T09:12:51.771Z,56.77
2022-12-29T09:15:21.083Z,56.57
2022-12-29T09:17:50.522Z,56.54
2022-12-29T09:20:20.828Z,56.59
2022-12-29T09:22:52.275Z,56.59
2022-12-29T09:25:26.255Z,56.53
2022-12-29T09:28:01.003Z,56.55
2022-12-29T09:30:30.925Z,56.51
2022-12-29T09:33:00.403Z,56.36
2022-12-29T09:35:29.796Z,56.25
2022-12-29T09:38:02.362Z,56.22
2022-12-29T09:40:34.643Z,56.24
2022-12-29T09:43:30.789Z,56.23
2022-12-29T09:46:18.879Z,56.29
2022-12-29T09:49:08.277Z,56.28
2022-12-29T09:51:44.694Z,56.21
2022-12-29T09:55:07.736Z,56.17
2022-12-29T09:58:01.507Z,56.38
2022-12-29T10:00:55.985Z,56.29
2022-12-29T10:03:37.968Z,56.22
2022-12-29T10:06:25.308Z,56.25
2022-12-29T10:09:16.893Z,55.95
2022-12-29T10:12:27.567Z,56.05
2022-12-29T10:15:38.656Z,56.25
2022-12-29T10:18:12.430Z,56.01
2022-12-29T10:21:40.920Z,56.00
2022-12-29T10:24:23.778Z,55.95
2022-12-29T10:26:53.597Z,55.59
2022-12-29T10:29:40.749Z,55.45
2022-12-29T10:32:58.318Z,55.15
2022-12-29T10:35:38.384Z,54.99
2022-12-29T10:38:37.202Z,55.00
2022-12-29T10:41:22.948Z,55.07
2022-12-29T10:43:56.058Z,55.14
2022-12-29T10:46:35.884Z,55.15
2022-12-29T10:49:21.060Z,55.09
2022-12-29T10:51:54.225Z,54.95
2022-12-29T10:54:39.707Z,55.06
2022-12-29T10:57:23.115Z,55.10
2022-12-29T10:59:52.308Z,55.22
2022-12-29T11:03:03.436Z,55.25
2022-12-29T11:05:55.992Z,55.06
2022-12-29T11:08:36.128Z,55.09
2022-12-29T11:11:11.488Z,55.02
2022-12-29T11:13:52.894Z,54.99
2022-12-29T11:16:35.752Z,54.93
2022-12-29T11:19:05.075Z,54.75
2022-12-29T11:21:41.485Z,54.26
2022-12-29T11:24:30.545Z,53.92
2022-12-29T11:27:17.971Z,53.98
2022-12-29T11:29:47.840Z,53.97
2022-12-29T11:32:32.560Z,53.87
2022-12-29T11:35:05.581Z,53.92
2022-12-29T11:37:41.238Z,53.79
2022-12-29T11:40:22.501Z,53.75
2022-12-29T11:43:35.306Z,53.66
2022-12-29T11:46:08.410Z,53.64
2022-12-29T11:48:42.860Z,53.56
2022-12-29T11:51:12.967Z,53.41
2022-12-29T11:53:53.039Z,53.50
2022-12-29T11:56:43.457Z,53.58
2022-12-29T11:59:31.065Z,53.48
2022-12-29T12:02:04.458Z,53.47
2022-12-29T12:04:38.514Z,53.56
2022-12-29T12:07:29.871Z,53.60
2022-12-29T12:10:07.997Z,53.50
2022-12-29T12:12:57.712Z,53.38
2022-12-29T12:15:50.155Z,53.64
2022-12-29T12:18:42.885Z,53.77
2022-12-29T12:21:26.504Z,53.93
2022-12-29T12:24:40.366Z,53.86
2022-12-29T12:27:31.278Z,53.96
2022-12-29T12:30:16.200Z,54.07
2022-12-29T12:33:15.305Z,54.18
2022-12-29T12:36:08.962Z,54.29
2022-12-29T12:39:27.590Z,54.40
2022-12-29T12:42:33.220Z,54.48
2022-12-29T12:45:44.830Z,54.60
2022-12-29T12:48:41.818Z,54.70
2022-12-29T12:51:37.390Z,54.69
2022-12-29T12:54:32.843Z,54.68
2022-12-29T12:57:17.077Z,54.73
2022-12-29T12:59:58.395Z,54.65
2022-12-29T13:02:53.503Z,54.77
2022-12-29T13:05:58.601Z,54.74
2022-12-29T13:09:07.764Z,54.94
2022-12-29T13:12:40.198Z,55.02
2022-12-29T13:15:12.155Z,55.26
2022-12-29T13:18:00.744Z,55.24
2022-12-29T13:21:18.567Z,55.33
2022-12-29T13:24:00.799Z,55.43
2022-12-29T13:26:43.823Z,55.54
2022-12-29T13:29:37.570Z,55.55
2022-12-29T13:32:25.795Z,55.53
2022-12-29T13:35:26.052Z,55.63
2022-12-29T13:38:18.697Z,55.56
2022-12-29T13:40:56.031Z,55.57
2022-12-29T13:43:34.661Z,55.58
2022-12-29T13:46:32.697Z,55.66
2022-12-29T13:49:29.150Z,55.60
2022-12-29T13:52:20.479Z,55.69
2022-12-29T13:55:34.839Z,55.76
2022-12-29T13:58:37.778Z,55.88
2022-12-29T14:01:58.109Z,56.01
2022-12-29T14:04:36.608Z,56.03
2022-12-29T14:07:19.036Z,56.04
2022-12-29T14:09:57.842Z,56.03
2022-12-29T14:12:36.072Z,56.11
2022-12-29T14:15:11.513Z,56.32
2022-12-29T14:18:05.064Z,56.29
2022-12-29T14:20:35.999Z,56.38
2022-12-29T14:23:11.904Z,56.53
2022-12-29T14:26:33.420Z,56.57
2022-12-29T14:29:50.319Z,56.78
2022-12-29T14:32:30.463Z,56.96
2022-12-29T14:35:50.606Z,57.11
2022-12-29T14:38:25.525Z,57.20
2022-12-29T14:41:35.917Z,57.39
2022-12-29T14:44:08.528Z,57.59
2022-12-29T14:47:10.070Z,57.51
2022-12-29T14:49:45.280Z,57.41
2022-12-29T14:52:21.133Z,57.49
2022-12-29T14:54:55.817Z,57.62
2022-12-29T14:57:48.714Z,57.75
2022-12-29T15:00:34.019Z,57.92
2022-12-29T15:03:14.166Z,58.19
2022-12-29T15:05:57.706Z,58.30
2022-12-29T15:08:32.034Z,58.50
2022-12-29T15:11:24.763Z,58.60
2022-12-29T15:13:53.980Z,58.77
2022-12-29T15:16:32.965Z,58.80
2022-12-29T15:19:06.909Z,58.82
2022-12-29T15:21:37.869Z,58.93
2022-12-29T15:24:07.635Z,59.04
2022-12-29T15:26:42.480Z,59.22
2022-12-29T15:30:02.207Z,59.22
2022-12-29T15:32:44.342Z,59.39
2022-12-29T15:35:33.688Z,59.33
2022-12-29T15:38:31.177Z,59.45
2022-12-29T15:41:58.511Z,59.49
2022-12-29T15:44:43.470Z,59.48
2022-12-29T15:47:29.823Z,59.55
2022-12-29T15:50:17.625Z,59.59
2022-12-29T15:52:47.239Z,59.69
2022-12-29T15:55:36.520Z,59.68
2022-12-29T15:58:20.452Z,59.65
2022-12-29T16:01:02.849Z,59.48
2022-12-29T16:03:37.456Z,59.47
2022-12-29T16:06:26.520Z,59.52
2022-12-29T16:09:08.098Z,59.63
2022-12-29T16:11:41.518Z,59.51
2022-12-29T16:14:18.866Z,59.52
2022-12-29T16:16:50.844Z,59.55
2022-12-29T16:19:28.111Z,59.47
2022-12-29T16:22:02.032Z,59.34
2022-12-29T16:24:34.466Z,59.34
2022-12-29T16:27:38.388Z,59.38
2022-12-29T16:30:33.921Z,59.17
2022-12-29T16:33:07.127Z,59.03
2022-12-29T16:35:49.525Z,59.00
2022-12-29T16:38:34.518Z,59.02
2022-12-29T16:41:04.729Z,58.78
2022-12-29T16:43:43.126Z,58.72
2022-12-29T16:46:31.852Z,58.46
2022-12-29T16:49:12.632Z,58.47
2022-12-29T16:51:46.928Z,58.41
2022-12-29T16:54:25.065Z,58.29
2022-12-29T16:56:54.712Z,58.34
2022-12-29T16:59:43.940Z,58.26
2022-12-29T17:02:22.559Z,58.31
2022-12-29T17:04:55.125Z,58.27
2022-12-29T17:07:29.095Z,58.38
2022-12-29T17:10:03.775Z,58.44
2022-12-29T17:12:37.724Z,58.34
2022-12-29T17:15:33.305Z,58.28
2022-12-29T17:18:13.360Z,58.26
2022-12-29T17:20:46.503Z,58.33
2022-12-29T17:23:25.950Z,58.26
2022-12-29T17:25:59.505Z,58.16
2022-12-29T17:28:32.353Z,58.24
2022-12-29T17:31:06.040Z,58.24
2022-12-29T17:33:40.287Z,58.24
2022-12-29T17:36:17.352Z,58.17
2022-12-29T17:38:47.447Z,58.05
2022-12-29T17:41:20.048Z,57.94
2022-12-29T17:43:51.280Z,58.02
2022-12-29T17:46:22.773Z,57.81
2022-12-29T17:48:54.047Z,57.88
2022-12-29T17:51:24.936Z,57.89
2022-12-29T17:53:54.580Z,57.90
2022-12-29T17:56:24.205Z,58.03
2022-12-29T17:59:00.829Z,58.13
2022-12-29T18:01:36.219Z,58.25
2022-12-29T18:04:07.612Z,58.37
2022-12-29T18:06:36.824Z,58.33
2022-12-29T18:09:08.964Z,58.37
2022-12-29T18:11:43.647Z,58.43
2022-12-29T18:14:17.786Z,58.44
2022-12-29T18:16:59.347Z,58.58
2022-12-29T18:19:33.954Z,58.59
2022-12-29T18:22:05.309Z,58.58
2022-12-29T18:24:34.710Z,58.53
2022-12-29T18:27:19.203Z,58.63
2022-12-29T18:29:50.363Z,58.57
2022-12-29T18:32:24.278Z,58.51
2022-12-29T18:34:54.103Z,58.49
2022-12-29T18:37:23.685Z,58.49
2022-12-29T18:39:53.141Z,58.51
2022-12-29T18:42:22.495Z,58.44
2022-12-29T18:44:55.569Z,58.39
2022-12-29T18:47:24.779Z,58.36
2022-12-29T18:49:58.321Z,58.41
2022-12-29T18:52:47.992Z,58.35
2022-12-29T18:58:17.783Z,58.44
2022-12-29T19:00:53.496Z,58.42
2022-12-29T19:03:26.145Z,58.47
2022-12-29T19:05:57.695Z,58.48
2022-12-29T19:13:01.022Z,58.61
2022-12-29T19:15:34.347Z,58.68
2022-12-29T19:18:42.482Z,58.72
2022-12-29T19:20:57.995Z,58.74
2022-12-29T19:23:28.574Z,58.58
2022-12-29T19:25:57.900Z,58.49
2022-12-29T19:28:29.538Z,58.39
2022-12-29T19:31:02.840Z,58.47
2022-12-29T19:33:32.670Z,58.39
2022-12-29T19:36:08.310Z,58.54
2022-12-29T19:38:39.607Z,58.47
2022-12-29T19:41:15.622Z,58.38
2022-12-29T19:43:50.795Z,58.44
2022-12-29T19:46:24.644Z,58.53
2022-12-29T19:49:05.998Z,58.51
2022-12-29T19:51:39.662Z,58.56
2022-12-29T19:54:11.483Z,58.61
2022-12-29T19:56:44.610Z,58.68
2022-12-29T19:59:14.140Z,58.72
2022-12-29T20:01:44.025Z,58.79
2022-12-29T20:04:13.540Z,58.75
2022-12-29T20:06:48.831Z,58.70
2022-12-29T20:09:28.654Z,58.66
2022-12-29T20:12:00.254Z,58.64
2022-12-29T20:14:29.681Z,58.61
2022-12-29T20:17:10.686Z,58.74
2022-12-29T20:19:53.281Z,58.73
2022-12-29T20:22:23.659Z,58.84
2022-12-29T20:25:05.129Z,58.86
2022-12-29T20:27:43.304Z,58.93
2022-12-29T20:30:14.264Z,58.87
2022-12-29T20:32:46.879Z,58.81
2022-12-29T20:35:22.952Z,58.70
2022-12-29T20:37:53.263Z,58.87
2022-12-29T20:40:23.244Z,58.72
2022-12-29T20:42:54.265Z,58.86
2022-12-29T20:45:26.508Z,58.77
2022-12-29T20:47:56.206Z,58.79
2022-12-29T20:50:29.083Z,58.90
2022-12-29T20:52:58.732Z,59.11
2022-12-29T20:55:28.381Z,59.26
2022-12-29T20:58:23.176Z,59.28
2022-12-29T21:00:51.898Z,59.28
2022-12-29T21:03:23.047Z,59.26
2022-12-29T21:05:54.270Z,59.18
2022-12-29T21:08:24.948Z,59.21
2022-12-29T21:10:57.503Z,59.36
2022-12-29T21:13:31.248Z,59.28
2022-12-29T21:16:08.351Z,59.44
2022-12-29T21:18:38.272Z,59.57
2022-12-29T21:21:20.097Z,59.61
2022-12-29T21:23:50.884Z,59.71
2022-12-29T21:26:24.182Z,59.65
2022-12-29T21:28:53.691Z,59.79
2022-12-29T21:31:33.660Z,59.81
2022-12-29T21:34:05.733Z,59.94
2022-12-29T21:36:34.892Z,59.93
2022-12-29T21:39:05.145Z,60.34
2022-12-29T21:41:35.284Z,60.48
2022-12-29T21:44:23.410Z,60.72
2022-12-29T21:46:52.779Z,60.68
2022-12-29T21:49:26.419Z,60.79
2022-12-29T21:51:57.735Z,61.00
2022-12-29T21:54:48.767Z,60.86
2022-12-29T21:57:38.205Z,60.82
2022-12-29T22:00:28.824Z,60.93
2022-12-29T22:03:22.562Z,60.96
2022-12-29T22:06:14.047Z,60.82
2022-12-29T22:09:02.300Z,60.94
2022-12-29T22:11:50.567Z,60.95
2022-12-29T22:14:23.611Z,60.97
2022-12-29T22:16:56.160Z,61.09
2022-12-29T22:19:28.494Z,61.28
2022-12-29T22:22:00.032Z,61.25
2022-12-29T22:24:29.679Z,61.27
2022-12-29T22:26:59.339Z,61.47
2022-12-29T22:29:28.619Z,61.48
2022-12-29T22:31:57.978Z,61.49
2022-12-29T22:34:27.550Z,61.52
2022-12-29T22:36:57.027Z,61.55
2022-12-29T22:39:29.893Z,61.47
2022-12-29T22:41:59.399Z,61.52
2022-12-29T22:44:31.513Z,61.66
2022-12-29T22:47:02.019Z,61.74
2022-12-29T22:49:31.801Z,61.70
2022-12-29T22:52:01.661Z,61.67
2022-12-29T22:54:32.059Z,61.73
2022-12-29T22:57:02.992Z,61.73
2022-12-29T22:59:33.079Z,61.85
2022-12-29T23:02:02.360Z,61.93
2022-12-29T23:07:29.068Z,62.22
2022-12-29T23:10:11.081Z,62.40
2022-12-29T23:12:42.965Z,62.57
2022-12-29T23:15:15.004Z,62.75
2022-12-29T23:17:46.257Z,62.74
2022-12-29T23:20:15.498Z,62.75
2022-12-29T23:22:44.956Z,62.86
2022-12-29T23:25:14.729Z,62.96
2022-12-29T23:27:54.563Z,62.94
2022-12-29T23:30:24.620Z,63.04
2022-12-29T23:33:03.765Z,63.02
2022-12-29T23:35:35.797Z,63.23
2022-12-29T23:38:05.131Z,63.34
2022-12-29T23:40:34.410Z,63.24
2022-12-29T23:43:03.725Z,63.23
2022-12-29T23:45:36.870Z,63.26
2022-12-29T23:48:06.668Z,63.17
2022-12-29T23:50:39.090Z,63.32
2022-12-29T23:53:10.303Z,63.47
2022-12-29T23:55:43.526Z,63.58
2022-12-29T23:58:12.675Z,63.61
